Wind From: 11-12-2017 07:30 Until: 12-12-2017 06:00 warning for: Wind Level: Orange info button

Power and phone distribution networks may be disrupted for relatively long periods., Roofs and chimneys can be damaged. , Tree branches may break. , Vehicles can be deported. , Traffic may be disrupted, particularly on secondary roads in forest areas. Limit your trips. , Limit your speed in highway driving, especially if you drive a vehicle or hitch sensitive to wind. , Do not go for walks in forests or along the coast., In town, be vigilant against possible falling objects., Do not work on roofs and do not touch any electrical line fallen on the ground., Store or secure sensitive objects to wind or likely to be damaged., Always install power generators outside buildings. 


Meteo18 Weather Cam more information Meteo18 Weather Cam


Thunder radar more information blitzortung!


Rain radar more information rain snow radar


Visit our other weather sites:

Template documentation
and downloads

And another site



Weather Underground History page Text

Daily Summary for January 30, 2016 Units:  Metric    English   Both
« Previous Day
Next Day »
Daily Weekly Monthly Yearly Custom
  High: Low: Average:
Temperature: 9.6 °C 5.4 °C 7.3 °C
Dew Point: 9.0 °C 3.6 °C 5.8 °C
Humidity: 96 % 84 % 90 %
Wind Speed: 22.5 km/h 0.0 km/h 6.2 km/h
Wind Gust: 32.2 km/h - -
Wind:- - SW
Pressure: 1029.3 hPa 1016.8 hPa -
Precipitation: 18.3 mm    
Historical Graphs
 
 
Tabular Data for January 30, 2016
Time Temperature Dew Point Pressure Wind Wind Speed Wind Gust Humidity Rainfall Rate (Hourly)
00:02 6.2 °C 4.4 °C 1029.3 hPa South 1.6 km/h 8.0 km/h 88 % 0.0 mm
00:07 6.2 °C 4.4 °C 1029.3 hPa WSW 3.2 km/h 8.0 km/h 88 % 0.0 mm
00:12 6.2 °C 4.4 °C 1029.3 hPa WSW 4.8 km/h 8.0 km/h 88 % 0.0 mm
00:17 6.2 °C 4.4 °C 1029.3 hPa WSW 1.6 km/h 6.4 km/h 88 % 0.0 mm
00:22 6.2 °C 4.4 °C 1029.3 hPa SW 1.6 km/h 6.4 km/h 88 % 0.0 mm
00:27 6.2 °C 4.4 °C 1029.3 hPa Calm   6.4 km/h 88 % 0.0 mm
00:32 6.2 °C 4.4 °C 1029.3 hPa WSW 4.8 km/h 6.4 km/h 88 % 0.0 mm
00:37 6.1 °C 4.3 °C 1029.0 hPa WSW 3.2 km/h 6.4 km/h 88 % 0.0 mm
00:42 6.1 °C 4.3 °C 1029.0 hPa SW 3.2 km/h 8.0 km/h 88 % 0.0 mm
00:57 6.1 °C 4.3 °C 1029.0 hPa SW 3.2 km/h 8.0 km/h 88 % 0.0 mm
01:02 6.1 °C 4.3 °C 1029.0 hPa WSW 3.2 km/h 8.0 km/h 88 % 0.0 mm
01:07 6.1 °C 4.3 °C 1028.7 hPa WSW 3.2 km/h 6.4 km/h 88 % 0.0 mm
01:12 6.1 °C 4.3 °C 1028.7 hPa SW 3.2 km/h 6.4 km/h 88 % 0.0 mm
01:17 6.1 °C 4.3 °C 1028.7 hPa SSW 1.6 km/h 6.4 km/h 88 % 0.0 mm
01:22 6.1 °C 4.3 °C 1028.7 hPa West 1.6 km/h 6.4 km/h 88 % 0.0 mm
01:27 6.0 °C 4.2 °C 1028.7 hPa SW 3.2 km/h 8.0 km/h 88 % 0.0 mm
01:32 6.0 °C 4.2 °C 1028.7 hPa Calm   8.0 km/h 88 % 0.0 mm
01:37 5.9 °C 4.1 °C 1028.3 hPa SW 4.8 km/h 8.0 km/h 88 % 0.0 mm
01:42 6.0 °C 4.2 °C 1028.3 hPa SW 4.8 km/h 8.0 km/h 88 % 0.0 mm
01:47 6.0 °C 4.2 °C 1028.3 hPa SW 3.2 km/h 8.0 km/h 88 % 0.0 mm
01:52 6.1 °C 4.3 °C 1028.0 hPa SW 3.2 km/h 8.0 km/h 88 % 0.0 mm
01:57 6.2 °C 4.4 °C 1028.0 hPa WSW 3.2 km/h 8.0 km/h 88 % 0.0 mm
02:02 6.1 °C 4.3 °C 1027.7 hPa West 3.2 km/h 8.0 km/h 88 % 0.0 mm
02:07 5.9 °C 4.1 °C 1028.0 hPa WSW 6.4 km/h 9.7 km/h 88 % 0.0 mm
02:12 5.9 °C 4.1 °C 1027.7 hPa SW 8.0 km/h 9.7 km/h 88 % 0.0 mm
02:17 6.0 °C 4.2 °C 1027.7 hPa SSW 4.8 km/h 9.7 km/h 88 % 0.0 mm
02:22 6.1 °C 4.1 °C 1027.7 hPa ESE 4.8 km/h 9.7 km/h 87 % 0.0 mm
02:32 6.1 °C 4.1 °C 1027.7 hPa SW 6.4 km/h 14.5 km/h 87 % 0.0 mm
02:37 6.0 °C 4.0 °C 1027.7 hPa SW 4.8 km/h 12.9 km/h 87 % 0.0 mm
02:42 6.0 °C 4.0 °C 1027.7 hPa SW 9.7 km/h 12.9 km/h 87 % 0.0 mm
02:47 6.0 °C 4.0 °C 1027.7 hPa WSW 9.7 km/h 12.9 km/h 87 % 0.0 mm
02:52 6.0 °C 4.0 °C 1027.7 hPa WSW 9.7 km/h 14.5 km/h 87 % 0.0 mm
02:57 6.0 °C 4.0 °C 1027.7 hPa SW 6.4 km/h 14.5 km/h 87 % 0.0 mm
03:02 6.0 °C 4.0 °C 1027.3 hPa SW 4.8 km/h 17.7 km/h 87 % 0.0 mm
03:12 6.0 °C 4.0 °C 1027.3 hPa WSW 6.4 km/h 17.7 km/h 87 % 0.0 mm
03:17 6.0 °C 4.0 °C 1027.3 hPa WSW 6.4 km/h 14.5 km/h 87 % 0.0 mm
03:22 6.0 °C 4.0 °C 1027.3 hPa WSW 9.7 km/h 14.5 km/h 87 % 0.0 mm
03:27 6.0 °C 4.0 °C 1027.3 hPa SW 6.4 km/h 14.5 km/h 87 % 0.0 mm
03:32 6.0 °C 4.0 °C 1027.0 hPa SW 8.0 km/h 14.5 km/h 87 % 0.0 mm
03:42 5.9 °C 3.9 °C 1027.0 hPa SSW 8.0 km/h 16.1 km/h 87 % 0.0 mm
03:47 5.8 °C 4.0 °C 1027.0 hPa WSW 4.8 km/h 16.1 km/h 88 % 0.0 mm
03:57 5.6 °C 3.8 °C 1026.6 hPa WSW 4.8 km/h 11.3 km/h 88 % 0.0 mm
04:02 5.5 °C 3.7 °C 1026.6 hPa WSW 4.8 km/h 11.3 km/h 88 % 0.0 mm
04:12 5.4 °C 3.6 °C 1026.6 hPa WSW 4.8 km/h 11.3 km/h 88 % 0.0 mm
04:17 5.5 °C 3.7 °C 1026.6 hPa WSW 8.0 km/h 9.7 km/h 88 % 0.0 mm
04:22 5.5 °C 3.7 °C 1026.6 hPa SW 3.2 km/h 9.7 km/h 88 % 0.0 mm
04:32 5.6 °C 3.8 °C 1026.3 hPa WSW 6.4 km/h 11.3 km/h 88 % 0.0 mm
04:42 5.5 °C 3.7 °C 1026.3 hPa WSW 6.4 km/h 16.1 km/h 88 % 0.0 mm
04:47 5.5 °C 3.7 °C 1026.3 hPa SW 3.2 km/h 14.5 km/h 88 % 0.0 mm
04:52 5.6 °C 3.8 °C 1026.0 hPa WNW 4.8 km/h 9.7 km/h 88 % 0.0 mm
04:57 5.6 °C 3.8 °C 1026.3 hPa SW 8.0 km/h 9.7 km/h 88 % 0.0 mm
05:02 5.6 °C 3.8 °C 1026.0 hPa SW 9.7 km/h 11.3 km/h 88 % 0.0 mm
05:07 5.6 °C 3.8 °C 1026.0 hPa WSW 3.2 km/h 11.3 km/h 88 % 0.0 mm
05:12 5.6 °C 3.8 °C 1026.0 hPa WSW 3.2 km/h 9.7 km/h 88 % 0.0 mm
05:17 5.6 °C 3.8 °C 1026.0 hPa WSW 3.2 km/h 9.7 km/h 88 % 0.0 mm
05:27 5.6 °C 3.8 °C 1026.0 hPa SW 1.6 km/h 9.7 km/h 88 % 0.0 mm
05:37 5.6 °C 3.8 °C 1026.0 hPa WSW 3.2 km/h 12.9 km/h 88 % 0.0 mm
05:42 5.5 °C 3.7 °C 1025.6 hPa SW 3.2 km/h 12.9 km/h 88 % 0.0 mm
05:52 5.5 °C 3.7 °C 1025.6 hPa West 4.8 km/h 12.9 km/h 88 % 0.0 mm
05:57 5.5 °C 3.7 °C 1025.6 hPa SW 3.2 km/h 12.9 km/h 88 % 0.0 mm
06:02 5.5 °C 3.7 °C 1025.3 hPa SW 6.4 km/h 14.5 km/h 88 % 0.0 mm
06:07 5.5 °C 3.7 °C 1025.3 hPa WSW 1.6 km/h 14.5 km/h 88 % 0.0 mm
06:17 5.6 °C 3.8 °C 1025.3 hPa West 3.2 km/h 11.3 km/h 88 % 0.0 mm
06:27 5.6 °C 3.8 °C 1024.9 hPa SW 4.8 km/h 11.3 km/h 88 % 0.0 mm
06:32 5.5 °C 3.7 °C 1024.9 hPa WSW 4.8 km/h 11.3 km/h 88 % 0.0 mm
06:37 5.4 °C 3.6 °C 1024.9 hPa WSW 6.4 km/h 11.3 km/h 88 % 0.0 mm
06:47 5.4 °C 3.7 °C 1024.9 hPa SSW 4.8 km/h 11.3 km/h 89 % 0.0 mm
06:52 5.4 °C 3.7 °C 1024.9 hPa South 4.8 km/h 9.7 km/h 89 % 0.0 mm
07:02 5.4 °C 3.7 °C 1024.9 hPa WSW 1.6 km/h 9.7 km/h 89 % 0.0 mm
07:07 5.4 °C 3.7 °C 1024.9 hPa WSW 4.8 km/h 8.0 km/h 89 % 0.0 mm
07:17 5.5 °C 3.8 °C 1024.9 hPa SW 6.4 km/h 9.7 km/h 89 % 0.0 mm
07:22 5.5 °C 3.8 °C 1024.6 hPa SW 4.8 km/h 9.7 km/h 89 % 0.0 mm
07:27 5.5 °C 3.8 °C 1024.6 hPa WSW 1.6 km/h 9.7 km/h 89 % 0.0 mm
07:32 5.5 °C 3.8 °C 1024.6 hPa SW 4.8 km/h 9.7 km/h 89 % 0.0 mm
07:42 5.6 °C 3.9 °C 1024.3 hPa WSW 3.2 km/h 8.0 km/h 89 % 0.0 mm
07:52 5.6 °C 3.9 °C 1024.3 hPa WSW 1.6 km/h 8.0 km/h 89 % 0.0 mm
07:57 5.6 °C 3.9 °C 1024.3 hPa SW 4.8 km/h 8.0 km/h 89 % 0.0 mm
08:02 5.6 °C 3.9 °C 1024.3 hPa SSW 6.4 km/h 8.0 km/h 89 % 0.0 mm
08:12 5.6 °C 3.9 °C 1024.3 hPa South 8.0 km/h 8.0 km/h 89 % 0.0 mm
08:17 5.6 °C 3.9 °C 1024.3 hPa Calm   9.7 km/h 89 % 0.0 mm
08:22 5.7 °C 4.0 °C 1024.3 hPa SSW 6.4 km/h 9.7 km/h 89 % 0.0 mm
08:32 5.8 °C 4.1 °C 1023.9 hPa SW 6.4 km/h 9.7 km/h 89 % 0.0 mm
08:37 5.9 °C 4.1 °C 1023.9 hPa WSW 3.2 km/h 11.3 km/h 88 % 0.0 mm
08:42 5.9 °C 4.1 °C 1023.9 hPa SW 1.6 km/h 11.3 km/h 88 % 0.0 mm
08:52 5.9 °C 4.1 °C 1023.6 hPa WSW 1.6 km/h 9.7 km/h 88 % 0.0 mm
09:02 5.9 °C 4.1 °C 1023.9 hPa SW 3.2 km/h 9.7 km/h 88 % 0.0 mm
09:12 6.1 °C 4.4 °C 1023.6 hPa WSW 3.2 km/h 8.0 km/h 89 % 0.0 mm
09:17 6.2 °C 4.5 °C 1023.6 hPa WSW 3.2 km/h 9.7 km/h 89 % 0.0 mm
09:22 6.3 °C 4.5 °C 1023.6 hPa West 3.2 km/h 9.7 km/h 88 % 0.0 mm
09:32 6.6 °C 4.6 °C 1023.2 hPa West 8.0 km/h 11.3 km/h 87 % 0.0 mm
09:37 6.6 °C 4.6 °C 1023.2 hPa SW 9.7 km/h 11.3 km/h 87 % 0.0 mm
09:42 6.7 °C 4.7 °C 1023.6 hPa SSE 8.0 km/h 11.3 km/h 87 % 0.0 mm
09:52 6.8 °C 4.6 °C 1023.6 hPa West 4.8 km/h 12.9 km/h 86 % 0.0 mm
09:57 6.8 °C 4.8 °C 1023.6 hPa South 8.0 km/h 16.1 km/h 87 % 0.0 mm
10:07 6.9 °C 4.9 °C 1023.2 hPa WSW 6.4 km/h 11.3 km/h 87 % 0.0 mm
10:12 7.0 °C 4.8 °C 1023.2 hPa WSW 6.4 km/h 11.3 km/h 86 % 0.0 mm
10:17 7.1 °C 4.9 °C 1023.2 hPa SW 11.3 km/h 11.3 km/h 86 % 0.0 mm
10:24 7.2 °C 5.0 °C 1023.2 hPa South 8.0 km/h 12.9 km/h 86 % 0.0 mm
10:32 7.2 °C 5.0 °C 1022.6 hPa SSW 8.0 km/h 14.5 km/h 86 % 0.0 mm
10:37 7.3 °C 5.1 °C 1022.6 hPa SSW 4.8 km/h 14.5 km/h 86 % 0.0 mm
10:42 7.3 °C 5.1 °C 1022.2 hPa WSW 8.0 km/h 16.1 km/h 86 % 0.0 mm
10:52 7.4 °C 5.0 °C 1022.2 hPa SW 8.0 km/h 16.1 km/h 85 % 0.0 mm
11:02 7.4 °C 5.0 °C 1022.6 hPa SW 9.7 km/h 16.1 km/h 85 % 0.0 mm
11:12 7.6 °C 5.4 °C 1022.2 hPa SW 4.8 km/h 17.7 km/h 86 % 0.0 mm
11:22 7.7 °C 5.2 °C 1022.6 hPa SW 9.7 km/h 17.7 km/h 84 % 0.0 mm
11:32 7.6 °C 5.4 °C 1022.6 hPa SW 8.0 km/h 20.9 km/h 86 % 0.0 mm
11:39 7.6 °C 5.6 °C 1022.9 hPa SW 12.9 km/h 20.9 km/h 87 % 0.0 mm
11:47 7.6 °C 5.6 °C 1022.2 hPa SW 11.3 km/h 20.9 km/h 87 % 0.0 mm
11:57 7.7 °C 5.5 °C 1022.2 hPa South 9.7 km/h 20.9 km/h 86 % 0.0 mm
12:02 7.8 °C 5.6 °C 1022.2 hPa WSW 14.5 km/h 17.7 km/h 86 % 0.0 mm
12:07 7.9 °C 5.5 °C 1021.9 hPa WSW 9.7 km/h 27.4 km/h 85 % 0.0 mm
12:12 8.1 °C 5.6 °C 1021.9 hPa South 9.7 km/h 27.4 km/h 84 % 0.0 mm
12:19 8.2 °C 5.8 °C 1021.6 hPa SE 9.7 km/h 27.4 km/h 85 % 0.0 mm
12:27 8.0 °C 6.0 °C 1021.6 hPa SW 11.3 km/h 24.1 km/h 87 % 0.0 mm
12:42 8.2 °C 6.0 °C 1020.9 hPa WSW 4.8 km/h 25.7 km/h 86 % 0.0 mm
12:47 8.3 °C 6.1 °C 1020.9 hPa WSW 9.7 km/h 25.7 km/h 86 % 0.0 mm
12:57 8.3 °C 6.1 °C 1020.5 hPa WSW 11.3 km/h 20.9 km/h 86 % 0.0 mm
13:17 8.4 °C 6.2 °C 1020.2 hPa WSW 16.1 km/h 29.0 km/h 86 % 0.0 mm
13:27 8.4 °C 6.2 °C 1019.9 hPa SW 12.9 km/h 22.5 km/h 86 % 0.0 mm
13:32 8.4 °C 6.4 °C 1019.9 hPa SW 14.5 km/h 22.5 km/h 87 % 0.0 mm
13:37 8.4 °C 6.4 °C 1019.9 hPa West 9.7 km/h 24.1 km/h 87 % 0.0 mm
13:42 8.3 °C 6.4 °C 1019.9 hPa WSW 16.1 km/h 24.1 km/h 88 % 0.0 mm
13:47 8.2 °C 6.5 °C 1019.5 hPa SW 4.8 km/h 30.6 km/h 89 % 0.0 mm
13:57 7.9 °C 6.5 °C 1019.2 hPa SW 16.1 km/h 30.6 km/h 91 % 0.3 mm
14:02 7.9 °C 6.5 °C 1019.2 hPa WSW 14.5 km/h 25.7 km/h 91 % 0.3 mm
14:07 7.9 °C 6.5 °C 1019.2 hPa WSW 4.8 km/h 27.4 km/h 91 % 0.5 mm
14:27 7.9 °C 6.8 °C 1018.8 hPa SW 12.9 km/h 27.4 km/h 93 % 1.0 mm
14:32 7.9 °C 6.8 °C 1018.5 hPa SW 9.7 km/h 27.4 km/h 93 % 1.0 mm
14:37 8.1 °C 7.0 °C 1018.5 hPa WSW 19.3 km/h 24.1 km/h 93 % 1.3 mm
14:42 8.1 °C 7.0 °C 1018.2 hPa WSW 8.0 km/h 24.1 km/h 93 % 1.3 mm
14:47 8.2 °C 7.1 °C 1018.2 hPa WSW 16.1 km/h 25.7 km/h 93 % 1.3 mm
14:57 8.3 °C 7.2 °C 1017.8 hPa SSW 4.8 km/h 22.5 km/h 93 % 1.3 mm
15:07 8.3 °C 7.2 °C 1017.8 hPa SE 11.3 km/h 22.5 km/h 93 % 1.0 mm
15:12 8.3 °C 7.2 °C 1017.5 hPa SW 9.7 km/h 22.5 km/h 93 % 1.0 mm
15:17 8.3 °C 7.4 °C 1017.5 hPa SW 16.1 km/h 24.1 km/h 94 % 0.8 mm
15:27 8.3 °C 7.4 °C 1017.2 hPa WSW 14.5 km/h 25.7 km/h 94 % 0.5 mm
15:32 8.4 °C 7.5 °C 1017.2 hPa SW 14.5 km/h 25.7 km/h 94 % 0.5 mm
15:37 8.4 °C 7.5 °C 1017.2 hPa WSW 6.4 km/h 25.7 km/h 94 % 0.5 mm
15:59 8.8 °C 7.9 °C 1017.2 hPa WSW 6.4 km/h 29.0 km/h 94 % 0.5 mm
16:07 8.8 °C 7.9 °C 1016.8 hPa WSW 22.5 km/h 29.0 km/h 94 % 0.5 mm
16:12 8.8 °C 7.9 °C 1016.8 hPa SSW 8.0 km/h 29.0 km/h 94 % 0.5 mm
16:22 8.9 °C 8.0 °C 1016.8 hPa SW 11.3 km/h 24.1 km/h 94 % 0.5 mm
16:34 8.9 °C 8.0 °C 1016.8 hPa SW 12.9 km/h 32.2 km/h 94 % 0.5 mm
16:42 8.9 °C 8.1 °C 1016.8 hPa SW 11.3 km/h 32.2 km/h 95 % 0.8 mm
16:52 9.0 °C 8.2 °C 1016.8 hPa WSW 20.9 km/h 27.4 km/h 95 % 1.0 mm
17:02 9.1 °C 8.3 °C 1017.2 hPa SSW 19.3 km/h 27.4 km/h 95 % 0.8 mm
17:07 9.1 °C 8.3 °C 1017.2 hPa WSW 17.7 km/h 27.4 km/h 95 % 1.0 mm
17:17 9.2 °C 8.4 °C 1017.2 hPa SW 17.7 km/h 27.4 km/h 95 % 1.5 mm
17:22 9.2 °C 8.4 °C 1017.2 hPa WNW 6.4 km/h 32.2 km/h 95 % 1.5 mm
17:29 9.2 °C 8.6 °C 1017.5 hPa WSW 6.4 km/h 32.2 km/h 96 % 1.5 mm
17:37 9.3 °C 8.7 °C 1017.8 hPa SW 8.0 km/h 27.4 km/h 96 % 1.8 mm
17:44 9.3 °C 8.7 °C 1017.8 hPa SW 4.8 km/h 25.7 km/h 96 % 1.8 mm
17:52 9.3 °C 8.7 °C 1017.8 hPa SW 6.4 km/h 25.7 km/h 96 % 3.0 mm
17:57 9.3 °C 8.7 °C 1017.8 hPa SSW 6.4 km/h 17.7 km/h 96 % 3.6 mm
18:09 9.3 °C 8.7 °C 1017.8 hPa WSW 3.2 km/h 12.9 km/h 96 % 4.1 mm
18:17 9.3 °C 8.7 °C 1017.8 hPa SW 4.8 km/h 12.9 km/h 96 % 4.1 mm
18:22 9.3 °C 8.7 °C 1017.8 hPa SW 8.0 km/h 12.9 km/h 96 % 4.1 mm
18:32 9.4 °C 8.8 °C 1017.8 hPa SW 3.2 km/h 19.3 km/h 96 % 4.6 mm
18:42 9.5 °C 8.9 °C 1017.8 hPa WSW 11.3 km/h 17.7 km/h 96 % 4.6 mm
18:52 9.6 °C 9.0 °C 1017.8 hPa SW 6.4 km/h 19.3 km/h 96 % 3.6 mm
18:57 9.6 °C 9.0 °C 1018.2 hPa SW 3.2 km/h 16.1 km/h 96 % 3.0 mm
19:02 9.6 °C 9.0 °C 1018.2 hPa SW 6.4 km/h 16.1 km/h 96 % 3.0 mm
19:12 9.6 °C 9.0 °C 1018.2 hPa WSW 8.0 km/h 17.7 km/h 96 % 3.0 mm
19:22 9.6 °C 9.0 °C 1018.2 hPa SW 8.0 km/h 22.5 km/h 96 % 3.0 mm
19:27 9.6 °C 9.0 °C 1018.5 hPa SSW 3.2 km/h 14.5 km/h 96 % 2.8 mm
19:32 9.5 °C 8.9 °C 1018.5 hPa West 1.6 km/h 14.5 km/h 96 % 2.8 mm
19:37 9.4 °C 8.8 °C 1018.5 hPa South 1.6 km/h 14.5 km/h 96 % 2.8 mm
19:47 9.4 °C 8.8 °C 1018.5 hPa SE 3.2 km/h 14.5 km/h 96 % 3.3 mm
19:52 9.4 °C 8.8 °C 1018.5 hPa WSW 4.8 km/h 14.5 km/h 96 % 3.3 mm
19:57 9.3 °C 8.7 °C 1018.5 hPa South 6.4 km/h 14.5 km/h 96 % 3.0 mm
20:02 9.3 °C 8.7 °C 1018.5 hPa SW 6.4 km/h 14.5 km/h 96 % 3.0 mm
20:07 9.3 °C 8.7 °C 1018.5 hPa WSW 8.0 km/h 17.7 km/h 96 % 2.8 mm
20:12 9.3 °C 8.7 °C 1018.8 hPa South 1.6 km/h 17.7 km/h 96 % 2.8 mm
20:17 9.3 °C 8.7 °C 1018.8 hPa NNW 3.2 km/h 17.7 km/h 96 % 2.3 mm
20:22 9.3 °C 8.7 °C 1018.8 hPa West 1.6 km/h 16.1 km/h 96 % 2.3 mm
20:27 9.3 °C 8.5 °C 1018.8 hPa Calm   14.5 km/h 95 % 2.3 mm
20:37 9.3 °C 8.5 °C 1018.8 hPa WSW 6.4 km/h 14.5 km/h 95 % 1.8 mm
20:47 9.2 °C 8.6 °C 1019.2 hPa Calm   14.5 km/h 96 % 1.5 mm
20:52 9.2 °C 8.6 °C 1019.2 hPa South 6.4 km/h 9.7 km/h 96 % 1.5 mm
21:04 9.2 °C 8.6 °C 1019.2 hPa WSW 1.6 km/h 11.3 km/h 96 % 1.8 mm
21:12 9.2 °C 8.6 °C 1018.8 hPa NW 1.6 km/h 11.3 km/h 96 % 1.8 mm
21:22 9.1 °C 8.3 °C 1018.8 hPa East 1.6 km/h 9.7 km/h 95 % 1.8 mm
21:27 9.1 °C 8.3 °C 1019.2 hPa SW 1.6 km/h 9.7 km/h 95 % 1.8 mm
21:37 8.9 °C 8.1 °C 1019.2 hPa Calm   6.4 km/h 95 % 1.5 mm
21:47 8.9 °C 8.1 °C 1019.2 hPa Calm   8.0 km/h 95 % 1.8 mm
21:52 8.8 °C 8.0 °C 1019.2 hPa ENE 4.8 km/h 9.7 km/h 95 % 1.8 mm
22:02 8.8 °C 8.0 °C 1019.2 hPa SW 4.8 km/h 9.7 km/h 95 % 1.5 mm
22:07 8.8 °C 8.0 °C 1018.8 hPa SW 4.8 km/h 8.0 km/h 95 % 1.5 mm
22:17 8.8 °C 7.9 °C 1018.8 hPa SW 1.6 km/h 16.1 km/h 94 % 1.5 mm
22:22 8.7 °C 7.8 °C 1018.8 hPa ESE 11.3 km/h 16.1 km/h 94 % 1.5 mm
22:32 8.6 °C 7.7 °C 1018.8 hPa SW 3.2 km/h 12.9 km/h 94 % 1.3 mm
22:42 8.5 °C 7.6 °C 1018.8 hPa Calm   12.9 km/h 94 % 1.5 mm
22:49 8.4 °C 7.5 °C 1018.8 hPa Calm   12.9 km/h 94 % 1.5 mm
22:57 8.4 °C 7.6 °C 1018.8 hPa Calm   8.0 km/h 95 % 1.3 mm
23:02 8.3 °C 7.5 °C 1018.5 hPa Calm   4.8 km/h 95 % 1.3 mm
23:12 8.3 °C 7.7 °C 1018.5 hPa WSW 1.6 km/h 3.2 km/h 96 % 1.3 mm
23:17 8.3 °C 7.7 °C 1018.5 hPa SW 3.2 km/h 3.2 km/h 96 % 1.3 mm
23:22 8.4 °C 7.8 °C 1018.5 hPa SSW 3.2 km/h 4.8 km/h 96 % 1.3 mm
23:32 8.4 °C 7.8 °C 1018.5 hPa Calm   6.4 km/h 96 % 1.0 mm
23:42 8.4 °C 7.6 °C 1018.5 hPa Calm   6.4 km/h 95 % 1.0 mm
23:47 8.4 °C 7.6 °C 1018.2 hPa Calm   4.8 km/h 95 % 1.0 mm
Meteo18
Compliments of Weather Underground - 4 mb

Script developed by  Jim McMurry - jmcmurry@mwt.net Adapted for the template by  Wim van der Kuil - Leuven-Template.eu

You find our weather info also at:

European Weather Network

Weather Underground

Equipment we use:

Weather-station
Davis Vue

Weather-program
Meteohub

Weather-server
Raspberry PI 2 B+

Provider
1 and 1

Davis Vue

Meteohub

Raspberry PI 2 B+

1 and 1